SBOSBO RAK / GMMX
Speedbird OnlineSpeedbird Online RAK / GMMX

Menara Airport
13:36 16°C

Location Marrakech, Morocco
Latitude: 31.606899261499997
Longitude: -8.03629970551
Web Wikipedia
Altitude 471 Meter / 1545 Feet
Distance 2,311 KM / 1,436 Miles
from London.
Time Zone UTC +1 hours (Africa/Casablanca)
Codes IATA: RAK
ICAO: GMMX
Currency £1 equals MAD 12.54
Runways
RunwayLength (m)Surface
103100Asphalt
283100Asphalt
Radio
TypeDescriptionFrequency
APPMARRAKECH APP119.7
TWRMARRAKECH TWR118.7
Live ATC
METAR GMMX 311230Z 04004KT 360V070 9999 SCT023 BKN100 16/M00 Q1023 NOSIG
TAF TAF GMMX 311100Z 3112/0118 24008KT 8000 SCT030 SCT100 TEMPO 3116/3122 34018KT
Weather As Of 31 Jan 2023 13:36
Description Broken clouds
Wind 11 km/h from North-East (30°)
Cloud Cover 75%
Precipitation Rain: none, Snow: none
Sunrise 08:25
Sunset 19:04
Lounges Oasis Lounge , Terminal 1
Pearl Lounge , Terminal 1
Rotations During the last 90 days there were
111 flights from LGW
59 flights from LHR
111 flights to LGW
59 flights to LHR



Support Speedbird Online

© 2017-2023 Speedbird Online